createdAt,value
2017-12-16T00:02:19.188Z,62.60
2017-12-16T00:04:48.226Z,62.50
2017-12-16T00:07:16.966Z,63.20
2017-12-16T00:09:45.858Z,63.20
2017-12-16T00:12:14.749Z,63.40
2017-12-16T00:14:43.436Z,63.40
2017-12-16T00:17:12.127Z,63.10
2017-12-16T00:19:40.805Z,62.80
2017-12-16T00:22:09.696Z,62.80
2017-12-16T00:24:39.405Z,63.70
2017-12-16T00:27:08.300Z,63.60
2017-12-16T00:29:36.993Z,63.30
2017-12-16T00:32:05.875Z,63.80
2017-12-16T00:34:34.562Z,64.80
2017-12-16T00:37:03.352Z,64.80
2017-12-16T00:39:32.249Z,65.10
2017-12-16T00:42:01.131Z,63.80
2017-12-16T00:44:29.816Z,64.00
2017-12-16T00:46:58.614Z,65.10
2017-12-16T00:49:27.497Z,64.00
2017-12-16T00:51:56.183Z,65.00
2017-12-16T00:54:25.075Z,64.90
2017-12-16T00:56:53.767Z,64.80
2017-12-16T00:59:22.449Z,64.80
2017-12-16T01:01:51.345Z,64.80
2017-12-16T01:04:20.229Z,64.90
2017-12-16T01:06:49.120Z,65.00
2017-12-16T01:09:17.762Z,64.40
2017-12-16T01:11:48.235Z,64.40
2017-12-16T01:14:17.126Z,64.50
2017-12-16T01:16:45.912Z,64.70
2017-12-16T01:19:15.274Z,64.70
2017-12-16T01:21:44.922Z,64.90
2017-12-16T01:24:13.816Z,64.90
2017-12-16T01:26:43.524Z,65.20
2017-12-16T01:29:12.334Z,65.10
2017-12-16T01:31:41.203Z,65.20
2017-12-16T01:34:21.515Z,65.20
2017-12-16T01:37:01.821Z,64.80
2017-12-16T01:39:30.508Z,65.00
2017-12-16T01:41:59.400Z,64.40
2017-12-16T01:44:28.292Z,64.30
2017-12-16T01:46:57.180Z,64.30
2017-12-16T01:49:26.181Z,64.80
2017-12-16T01:51:55.064Z,64.30
2017-12-16T01:54:23.853Z,64.20
2017-12-16T01:56:52.949Z,64.00
2017-12-16T01:59:21.776Z,64.20
2017-12-16T02:01:50.539Z,64.40
2017-12-16T02:04:19.404Z,65.00
2017-12-16T02:06:48.940Z,65.10
2017-12-16T02:09:18.632Z,64.20
2017-12-16T02:11:47.422Z,64.20
2017-12-16T02:14:16.249Z,64.50
2017-12-16T02:16:45.047Z,63.80
2017-12-16T02:19:13.991Z,63.80
2017-12-16T02:21:42.883Z,63.90
2017-12-16T02:24:11.817Z,63.80
2017-12-16T02:26:40.769Z,63.70
2017-12-16T02:29:09.662Z,63.80
2017-12-16T02:31:38.553Z,63.70
2017-12-16T02:34:07.342Z,63.80
2017-12-16T02:36:36.234Z,64.30
2017-12-16T02:39:05.123Z,64.40
2017-12-16T02:41:33.910Z,64.30
2017-12-16T02:44:02.801Z,64.60
2017-12-16T02:46:31.691Z,64.60
2017-12-16T02:49:00.583Z,64.90
2017-12-16T02:51:29.472Z,64.70
2017-12-16T02:53:58.366Z,65.10
2017-12-16T02:56:27.255Z,65.30
2017-12-16T02:58:56.150Z,65.00
2017-12-16T03:01:25.039Z,64.90
2017-12-16T03:03:54.030Z,64.80
2017-12-16T03:06:23.707Z,65.20
2017-12-16T03:08:52.728Z,65.20
2017-12-16T03:11:21.523Z,65.20
2017-12-16T03:13:51.240Z,65.40
2017-12-16T03:16:20.946Z,65.20
2017-12-16T03:18:49.835Z,65.10
2017-12-16T03:21:18.729Z,65.00
2017-12-16T03:23:47.616Z,64.90
2017-12-16T03:26:16.509Z,65.00
2017-12-16T03:28:45.397Z,65.40
2017-12-16T03:31:14.396Z,65.50
2017-12-16T03:33:43.224Z,65.70
2017-12-16T03:36:12.174Z,66.00
2017-12-16T03:38:41.167Z,66.10
2017-12-16T03:41:09.995Z,66.40
2017-12-16T03:43:39.052Z,66.30
2017-12-16T03:46:08.803Z,66.50
2017-12-16T03:48:37.902Z,66.70
2017-12-16T03:51:07.875Z,66.70
2017-12-16T03:53:36.774Z,66.80
2017-12-16T03:56:06.481Z,66.90
2017-12-16T03:58:35.369Z,66.80
2017-12-16T04:01:04.258Z,66.90
2017-12-16T04:03:33.343Z,66.60
2017-12-16T04:06:02.247Z,66.60
2017-12-16T04:08:31.136Z,65.90
2017-12-16T04:10:59.930Z,65.90
2017-12-16T04:13:29.081Z,66.10
2017-12-16T04:15:58.012Z,66.00
2017-12-16T04:18:28.430Z,66.00
2017-12-16T04:20:57.977Z,66.00
2017-12-16T04:23:26.836Z,65.90
2017-12-16T04:25:55.827Z,65.80
2017-12-16T04:28:25.949Z,65.40
2017-12-16T04:30:55.662Z,65.50
2017-12-16T04:33:24.833Z,65.50
2017-12-16T04:35:53.964Z,65.30
2017-12-16T04:38:22.742Z,65.00
2017-12-16T04:40:51.797Z,65.40
2017-12-16T04:43:20.941Z,65.20
2017-12-16T04:45:50.032Z,65.30
2017-12-16T04:48:18.835Z,65.00
2017-12-16T04:50:48.572Z,63.80
2017-12-16T04:53:18.242Z,63.90
2017-12-16T04:55:47.336Z,63.90
2017-12-16T04:58:16.554Z,63.80
2017-12-16T05:00:45.696Z,63.90
2017-12-16T05:03:14.833Z,64.20
2017-12-16T05:05:44.139Z,64.60
2017-12-16T05:08:13.224Z,64.90
2017-12-16T05:10:42.332Z,65.00
2017-12-16T05:13:11.318Z,64.70
2017-12-16T05:15:40.597Z,65.10
2017-12-16T05:18:10.231Z,64.70
2017-12-16T05:20:39.217Z,64.50
2017-12-16T05:23:08.322Z,64.00
2017-12-16T05:25:38.241Z,63.30
2017-12-16T05:28:07.433Z,63.20
2017-12-16T05:30:36.520Z,63.00
2017-12-16T05:33:05.411Z,62.60
2017-12-16T05:35:34.308Z,62.40
2017-12-16T05:38:04.366Z,62.60
2017-12-16T05:40:34.036Z,63.80
2017-12-16T05:43:03.737Z,63.50
2017-12-16T05:45:32.636Z,63.50
2017-12-16T05:48:01.528Z,64.00
2017-12-16T05:50:30.616Z,64.00
2017-12-16T05:52:59.518Z,63.70
2017-12-16T05:55:28.614Z,63.00
2017-12-16T05:57:57.747Z,62.60
2017-12-16T06:00:27.615Z,63.10
2017-12-16T06:02:58.098Z,63.80
2017-12-16T06:05:27.252Z,63.80
2017-12-16T06:07:56.036Z,63.80
2017-12-16T06:10:25.944Z,63.50
2017-12-16T06:12:54.843Z,63.40
2017-12-16T06:15:23.639Z,63.40
2017-12-16T06:17:52.723Z,63.50
2017-12-16T06:20:21.838Z,64.10
2017-12-16T06:22:51.102Z,63.40
2017-12-16T06:25:20.527Z,63.60
2017-12-16T06:27:50.232Z,64.00
2017-12-16T06:30:20.144Z,64.10
2017-12-16T06:32:49.313Z,64.20
2017-12-16T06:35:18.338Z,64.20
2017-12-16T06:37:47.433Z,64.30
2017-12-16T06:40:16.368Z,64.50
2017-12-16T06:42:45.330Z,64.10
2017-12-16T06:45:14.259Z,63.80
2017-12-16T06:47:44.328Z,64.30
2017-12-16T06:50:13.123Z,64.80
2017-12-16T06:52:42.007Z,64.70
2017-12-16T06:55:10.897Z,64.50
2017-12-16T06:57:39.786Z,64.40
2017-12-16T07:00:08.882Z,64.80
2017-12-16T07:02:37.878Z,64.40
2017-12-16T07:05:06.975Z,63.70
2017-12-16T07:07:36.169Z,64.30
2017-12-16T07:10:05.216Z,64.00
2017-12-16T07:12:34.248Z,64.30
2017-12-16T07:15:03.322Z,63.80
2017-12-16T07:17:32.190Z,64.00
2017-12-16T07:20:01.137Z,64.20
2017-12-16T07:22:30.028Z,64.00
2017-12-16T07:24:59.025Z,64.50
2017-12-16T07:27:28.014Z,64.10
2017-12-16T07:29:57.622Z,64.10
2017-12-16T07:32:26.616Z,64.50
2017-12-16T07:34:56.223Z,65.50
2017-12-16T07:37:25.115Z,64.10
2017-12-16T07:39:53.802Z,64.10
2017-12-16T07:42:22.691Z,64.40
2017-12-16T07:44:51.526Z,64.50
2017-12-16T07:47:20.475Z,64.30
2017-12-16T07:49:49.264Z,64.80
2017-12-16T07:52:18.088Z,64.40
2017-12-16T07:54:46.942Z,64.90
2017-12-16T07:57:15.732Z,65.00
2017-12-16T07:59:44.723Z,65.10
2017-12-16T08:02:13.551Z,65.30
2017-12-16T08:04:42.450Z,65.70
2017-12-16T08:07:11.191Z,65.80
2017-12-16T08:09:40.192Z,65.80
2017-12-16T08:12:08.877Z,65.70
2017-12-16T08:14:37.562Z,65.50
2017-12-16T08:17:06.655Z,65.20
2017-12-16T08:19:35.343Z,65.10
2017-12-16T08:22:04.129Z,64.70
2017-12-16T08:24:33.021Z,64.40
2017-12-16T08:27:01.814Z,64.10
2017-12-16T08:29:30.454Z,63.90
2017-12-16T08:31:59.284Z,63.50
2017-12-16T08:34:27.975Z,62.60
2017-12-16T08:36:56.656Z,61.30
2017-12-16T08:39:25.445Z,61.10
2017-12-16T08:41:54.234Z,60.20
2017-12-16T08:44:23.063Z,59.60
2017-12-16T08:46:51.811Z,59.90
2017-12-16T08:49:20.625Z,59.50
2017-12-16T08:51:49.286Z,59.10
2017-12-16T08:54:18.130Z,58.80
2017-12-16T08:56:47.583Z,59.40
2017-12-16T08:59:16.470Z,59.40
2017-12-16T09:01:45.620Z,59.50
2017-12-16T09:04:14.355Z,59.30
2017-12-16T09:06:43.225Z,58.90
2017-12-16T09:09:12.212Z,58.60
2017-12-16T09:11:40.952Z,58.20
2017-12-16T09:14:09.721Z,58.40
2017-12-16T09:16:38.549Z,57.80
2017-12-16T09:19:07.291Z,57.70
2017-12-16T09:21:36.589Z,56.60
2017-12-16T09:24:05.490Z,57.50
2017-12-16T09:26:34.316Z,57.70
2017-12-16T09:29:03.776Z,56.90
2017-12-16T09:31:32.681Z,57.70
2017-12-16T09:34:01.503Z,55.70
2017-12-16T09:36:30.616Z,56.80
2017-12-16T09:38:59.444Z,57.70
2017-12-16T09:41:28.130Z,58.10
2017-12-16T09:43:56.816Z,58.40
2017-12-16T09:46:26.525Z,58.10
2017-12-16T09:48:55.216Z,58.10
2017-12-16T09:51:23.908Z,57.70
2017-12-16T09:53:53.607Z,59.20
2017-12-16T09:56:22.292Z,59.10
2017-12-16T09:58:51.085Z,59.50
2017-12-16T10:01:19.972Z,58.60
2017-12-16T10:03:48.762Z,58.50
2017-12-16T10:06:17.798Z,58.70
2017-12-16T10:08:47.465Z,58.40
2017-12-16T10:11:16.361Z,58.40
2017-12-16T10:13:45.042Z,58.30
2017-12-16T11:38:28.635Z,58.60
2017-12-16T11:40:57.532Z,49.70
2017-12-16T11:43:26.316Z,48.50
2017-12-16T11:45:55.213Z,47.80
2017-12-16T11:48:24.004Z,47.10
2017-12-16T11:50:52.778Z,46.80
2017-12-16T11:53:21.754Z,48.00
2017-12-16T11:55:50.674Z,47.70
2017-12-16T11:58:19.473Z,48.50
2017-12-16T12:00:48.451Z,48.20
2017-12-16T12:03:17.171Z,48.10
2017-12-16T12:05:46.033Z,47.50
2017-12-16T12:08:14.926Z,47.30
2017-12-16T12:10:43.811Z,46.60
2017-12-16T12:13:12.648Z,47.10
2017-12-16T12:15:41.389Z,47.30
2017-12-16T12:18:10.283Z,47.70
2017-12-16T12:20:39.177Z,47.30
2017-12-16T12:23:14.820Z,46.60
2017-12-16T12:25:43.611Z,45.80
2017-12-16T12:28:12.299Z,44.80
2017-12-16T12:30:40.983Z,44.60
2017-12-16T12:33:09.671Z,42.70
2017-12-16T12:35:38.546Z,41.90
2017-12-16T12:38:07.464Z,42.10
2017-12-16T12:40:37.367Z,41.90
2017-12-16T12:43:06.056Z,41.90
2017-12-16T12:45:34.939Z,42.00
2017-12-16T12:48:03.858Z,42.00
2017-12-16T12:50:33.233Z,40.30
2017-12-16T12:53:02.125Z,41.60
2017-12-16T12:55:30.809Z,39.90
2017-12-16T12:57:59.505Z,40.50
2017-12-16T13:00:28.354Z,40.80
2017-12-16T13:02:57.080Z,39.60
2017-12-16T13:05:25.973Z,40.20
2017-12-16T13:07:54.854Z,38.50
2017-12-16T13:10:23.548Z,38.60
2017-12-16T13:12:52.642Z,38.70
2017-12-16T13:15:21.527Z,38.00
2017-12-16T13:17:50.218Z,39.10
2017-12-16T13:20:18.903Z,41.00
2017-12-16T13:22:47.510Z,39.00
2017-12-16T13:25:16.479Z,39.00
2017-12-16T13:27:46.089Z,37.50
2017-12-16T13:30:14.944Z,37.30
2017-12-16T13:32:43.664Z,37.40
2017-12-16T13:35:12.557Z,36.10
2017-12-16T13:37:41.554Z,37.50
2017-12-16T13:40:10.644Z,36.10
2017-12-16T13:42:39.536Z,34.50
2017-12-16T13:45:08.431Z,33.10
2017-12-16T13:47:37.114Z,34.50
2017-12-16T13:50:06.004Z,35.10
2017-12-16T13:52:34.906Z,34.30
2017-12-16T13:55:03.785Z,35.40
2017-12-16T13:57:32.478Z,34.80
2017-12-16T14:00:01.367Z,34.20
2017-12-16T14:02:31.080Z,34.80
2017-12-16T14:04:59.996Z,34.70
2017-12-16T14:07:28.757Z,33.50
2017-12-16T14:09:57.407Z,34.80
2017-12-16T14:12:26.126Z,35.40
2017-12-16T14:14:54.813Z,36.10
2017-12-16T14:17:23.659Z,34.40
2017-12-16T14:19:52.595Z,34.20
2017-12-16T14:22:21.441Z,34.10
2017-12-16T14:24:50.268Z,35.20
2017-12-16T14:27:19.076Z,35.20
2017-12-16T14:29:47.748Z,35.20
2017-12-16T14:32:16.436Z,33.80
2017-12-16T14:34:45.123Z,33.10
2017-12-16T14:37:14.215Z,31.60
2017-12-16T14:39:43.111Z,31.80
2017-12-16T14:42:11.954Z,32.40
2017-12-16T14:44:40.824Z,32.40
2017-12-16T14:47:09.579Z,29.70
2017-12-16T14:49:38.467Z,30.00
2017-12-16T14:52:07.165Z,30.80
2017-12-16T14:54:36.149Z,30.20
2017-12-16T14:57:04.778Z,30.30
2017-12-16T14:59:33.517Z,31.70
2017-12-16T15:02:02.203Z,31.50
2017-12-16T15:04:31.104Z,30.00
2017-12-16T15:06:59.988Z,29.50
2017-12-16T15:09:29.404Z,32.30
2017-12-16T15:11:58.188Z,32.30
2017-12-16T15:14:27.074Z,31.30
2017-12-16T15:16:55.754Z,30.80
2017-12-16T15:19:24.440Z,30.40
2017-12-16T15:21:53.131Z,30.00
2017-12-16T15:24:21.819Z,29.50
2017-12-16T15:26:50.703Z,31.10
2017-12-16T15:29:19.595Z,31.30
2017-12-16T15:31:48.689Z,31.90
2017-12-16T15:34:17.601Z,32.90
2017-12-16T15:36:46.470Z,33.00
2017-12-16T15:39:15.365Z,33.80
2017-12-16T15:41:44.047Z,34.60
2017-12-16T15:44:12.939Z,34.90
2017-12-16T15:46:41.632Z,34.90
2017-12-16T15:49:10.342Z,35.80
2017-12-16T15:51:39.153Z,36.20
2017-12-16T15:54:08.037Z,36.70
2017-12-16T15:56:36.779Z,37.40
2017-12-16T15:59:05.674Z,37.60
2017-12-16T16:01:34.362Z,37.90
2017-12-16T16:04:03.043Z,37.70
2017-12-16T16:06:31.934Z,38.10
2017-12-16T16:09:00.824Z,38.20
2017-12-16T16:11:29.716Z,38.70
2017-12-16T16:13:58.606Z,38.70
2017-12-16T16:16:27.501Z,39.30
2017-12-16T16:18:56.130Z,39.60
2017-12-16T16:21:24.870Z,39.80
2017-12-16T16:23:53.515Z,41.00
2017-12-16T16:26:22.244Z,40.90
2017-12-16T16:28:51.155Z,42.20
2017-12-16T16:31:20.639Z,43.40
2017-12-16T16:33:49.325Z,43.40
2017-12-16T16:36:18.011Z,43.20
2017-12-16T16:38:46.700Z,45.20
2017-12-16T16:41:15.388Z,44.30
2017-12-16T16:43:44.278Z,46.10
2017-12-16T16:46:13.173Z,45.70
2017-12-16T16:48:42.063Z,45.80
2017-12-16T16:51:10.947Z,46.80
2017-12-16T16:53:39.841Z,47.50
2017-12-16T16:56:08.525Z,47.70
2017-12-16T16:58:37.437Z,47.90
2017-12-16T17:01:06.309Z,47.90
2017-12-16T17:03:35.102Z,49.20
2017-12-16T17:06:03.989Z,48.90
2017-12-16T17:08:32.673Z,49.40
2017-12-16T17:11:01.360Z,49.50
2017-12-16T17:13:30.255Z,50.00
2017-12-16T17:15:58.873Z,50.30
2017-12-16T17:18:28.855Z,50.10
2017-12-16T17:20:57.750Z,51.30
2017-12-16T17:23:26.637Z,51.70
2017-12-16T17:25:56.199Z,52.60
2017-12-16T17:28:25.847Z,51.90
2017-12-16T17:30:55.355Z,52.30
2017-12-16T17:33:25.080Z,52.80
2017-12-16T17:35:53.955Z,53.20
2017-12-16T17:38:22.851Z,53.50
2017-12-16T17:40:51.634Z,52.80
2017-12-16T17:43:20.456Z,52.60
2017-12-16T17:45:49.266Z,53.00
2017-12-16T17:48:18.306Z,52.70
2017-12-16T17:50:47.656Z,52.70
2017-12-16T17:53:17.638Z,52.40
2017-12-16T17:55:50.361Z,52.80
2017-12-16T17:58:19.364Z,53.00
2017-12-16T18:00:48.229Z,52.10
2017-12-16T18:03:18.263Z,53.90
2017-12-16T18:05:48.085Z,52.10
2017-12-16T18:08:17.194Z,52.00
2017-12-16T18:10:46.116Z,52.20
2017-12-16T18:13:15.363Z,52.60
2017-12-16T18:15:44.203Z,52.60
2017-12-16T18:18:13.402Z,52.60
2017-12-16T18:20:42.435Z,52.50
2017-12-16T18:23:12.049Z,51.40
2017-12-16T18:25:40.991Z,51.40
2017-12-16T18:28:10.130Z,51.40
2017-12-16T18:30:39.087Z,50.50
2017-12-16T18:33:07.983Z,50.20
2017-12-16T18:35:37.086Z,50.40
2017-12-16T18:38:07.177Z,50.90
2017-12-16T18:40:36.080Z,50.90
2017-12-16T18:43:04.979Z,51.20
2017-12-16T18:45:35.329Z,51.80
2017-12-16T18:48:04.399Z,51.70
2017-12-16T18:50:34.414Z,52.70
2017-12-16T18:53:03.769Z,52.70
2017-12-16T18:55:32.826Z,53.00
2017-12-16T18:58:01.624Z,53.50
2017-12-16T19:00:31.950Z,53.90
2017-12-16T19:03:01.838Z,54.20
2017-12-16T19:05:31.161Z,54.20
2017-12-16T19:08:00.233Z,54.20
2017-12-16T19:10:28.923Z,54.30
2017-12-16T19:12:57.579Z,54.30
2017-12-16T19:15:26.493Z,54.60
2017-12-16T19:17:55.384Z,54.90
2017-12-16T19:20:24.887Z,55.10
2017-12-16T19:22:53.730Z,55.10
2017-12-16T19:25:22.464Z,54.90
2017-12-16T19:27:51.462Z,55.30
2017-12-16T19:30:20.860Z,54.90
2017-12-16T19:32:49.753Z,55.30
2017-12-16T19:35:18.438Z,55.10
2017-12-16T19:37:47.226Z,55.20
2017-12-16T19:40:15.916Z,55.30
2017-12-16T19:42:44.805Z,55.60
2017-12-16T19:45:13.597Z,55.90
2017-12-16T19:47:42.282Z,55.60
2017-12-16T19:50:11.177Z,55.30
2017-12-16T19:52:40.060Z,55.20
2017-12-16T19:55:08.954Z,54.90
2017-12-16T19:57:37.843Z,54.20
2017-12-16T20:00:06.734Z,54.50
2017-12-16T20:02:36.344Z,54.30
2017-12-16T20:05:05.134Z,53.80
2017-12-16T20:07:39.976Z,54.20
2017-12-16T20:10:09.064Z,54.50
2017-12-16T20:12:37.948Z,55.60
2017-12-16T20:15:06.840Z,55.10
2017-12-16T20:17:35.731Z,55.00
2017-12-16T20:20:04.622Z,54.90
2017-12-16T20:22:33.453Z,54.80
2017-12-16T20:25:02.198Z,55.10
2017-12-16T20:27:31.300Z,55.20
2017-12-16T20:30:00.186Z,55.00
2017-12-16T20:32:28.976Z,54.90
2017-12-16T20:34:58.583Z,54.70
2017-12-16T20:37:27.370Z,54.80
2017-12-16T20:39:56.264Z,54.80
2017-12-16T20:42:25.154Z,54.90
2017-12-16T20:44:53.941Z,54.80
2017-12-16T20:47:22.831Z,54.80
2017-12-16T20:49:51.471Z,55.60
2017-12-16T20:52:20.205Z,56.00
2017-12-16T20:54:49.139Z,55.80
2017-12-16T20:57:18.097Z,54.60
2017-12-16T20:59:47.387Z,55.20
2017-12-16T21:02:16.073Z,54.90
2017-12-16T21:04:44.914Z,54.80
2017-12-16T21:07:13.654Z,55.30
2017-12-16T21:09:42.336Z,54.20
2017-12-16T21:12:11.023Z,53.80
2017-12-16T21:14:39.711Z,53.20
2017-12-16T21:17:08.600Z,53.00
2017-12-16T21:19:37.287Z,53.00
2017-12-16T21:22:06.178Z,53.30
2017-12-16T21:24:35.082Z,53.20
2017-12-16T21:27:03.739Z,53.30
2017-12-16T21:29:32.651Z,53.70
2017-12-16T21:32:01.975Z,53.80
2017-12-16T21:34:31.046Z,54.10
2017-12-16T21:37:00.062Z,54.00
2017-12-16T21:39:29.034Z,53.70
2017-12-16T21:41:57.921Z,53.30
2017-12-16T21:44:26.925Z,53.00
2017-12-16T21:46:56.116Z,52.70
2017-12-16T21:49:24.977Z,52.00
2017-12-16T21:51:53.954Z,51.40
2017-12-16T21:54:22.793Z,50.70
2017-12-16T21:56:52.089Z,50.40
2017-12-16T21:59:20.719Z,50.00
2017-12-16T22:01:49.614Z,49.20
2017-12-16T22:04:18.306Z,48.30
2017-12-16T22:06:47.190Z,48.30
2017-12-16T22:09:16.046Z,48.80
2017-12-16T22:11:44.758Z,48.10
2017-12-16T22:14:13.516Z,49.00
2017-12-16T22:16:42.194Z,49.50
2017-12-16T22:19:10.876Z,49.50
2017-12-16T22:21:39.780Z,49.60
2017-12-16T22:24:08.472Z,47.50
2017-12-16T22:26:37.348Z,47.40
2017-12-16T22:29:06.053Z,47.00
2017-12-16T22:31:34.716Z,46.30
2017-12-16T22:34:03.410Z,45.20
2017-12-16T22:36:32.485Z,45.50
2017-12-16T22:39:01.189Z,44.80
2017-12-16T22:41:30.507Z,44.10
2017-12-16T22:43:59.589Z,43.20
2017-12-16T22:46:28.476Z,42.60
2017-12-16T22:48:57.118Z,42.30
2017-12-16T22:51:26.144Z,42.20
2017-12-16T22:53:54.942Z,43.10
2017-12-16T22:56:23.831Z,44.70
2017-12-16T22:58:53.235Z,46.00
2017-12-16T23:01:22.126Z,46.90
2017-12-16T23:03:51.017Z,47.30
2017-12-16T23:06:20.114Z,47.60
2017-12-16T23:08:49.006Z,47.70
2017-12-16T23:11:18.719Z,47.70
2017-12-16T23:13:47.604Z,47.50
2017-12-16T23:16:16.496Z,47.20
2017-12-16T23:18:45.387Z,46.80
2017-12-16T23:21:14.280Z,46.00
2017-12-16T23:23:43.169Z,46.00
2017-12-16T23:26:12.060Z,44.50
2017-12-16T23:28:41.774Z,44.40
2017-12-16T23:31:11.480Z,45.90
2017-12-16T23:33:40.372Z,45.30
2017-12-16T23:36:09.263Z,45.40
2017-12-16T23:38:54.279Z,44.20
2017-12-16T23:41:23.224Z,43.90
2017-12-16T23:43:52.048Z,43.40
2017-12-16T23:46:21.517Z,41.90
2017-12-16T23:48:50.411Z,41.90
2017-12-16T23:51:19.300Z,41.60
2017-12-16T23:53:47.975Z,41.30
2017-12-16T23:56:16.838Z,41.40
2017-12-16T23:58:45.787Z,40.20
